Time;durP1;ratioP1;P1;durP2;ratioP2;P2;SDS_P1;SDS_P2;PMS_P1;PMS_P2;Temp;Humidity;BMP_temperature;BMP_pressure;BME280_temperature;BME280_humidity;BME280_pressure;Samples;Min_cycle;Max_cycle;Signal;HPM_P1;HPM_P2
2021/09/27 00:00:29;;;;;;;48.85;24.50;;;;;;;;;;4944161;28;20042;-68
2021/09/27 00:02:58;;;;;;;47.00;24.10;;;;;;;;;;4968114;28;20064;-69
2021/09/27 00:05:26;;;;;;;45.72;23.05;;;;;;;;;;4950967;28;20470;-69
2021/09/27 00:07:54;;;;;;;50.15;25.58;;;;;;;;;;4973519;28;20270;-68
2021/09/27 00:10:22;;;;;;;45.55;24.35;;;;;;;;;;4944156;28;20295;-69
2021/09/27 00:12:47;;;;;;;47.42;24.35;;;;;;;;;;4947488;28;20030;-69
2021/09/27 00:15:16;;;;;;;45.45;24.08;;;;;;;;;;4966701;28;20117;-69
2021/09/27 00:17:41;;;;;;;43.35;24.95;;;;;;;;;;4947882;28;20585;-69
2021/09/27 00:20:07;;;;;;;51.80;26.23;;;;;;;;;;4931008;28;20029;-68
2021/09/27 00:22:35;;;;;;;47.47;23.67;;;;;;;;;;4954743;28;20068;-68
2021/09/27 00:25:06;;;;;;;49.05;25.13;;;;;;;;;;4930114;28;20110;-69
2021/09/27 00:27:34;;;;;;;50.95;24.85;;;;;;;;;;4947002;28;20034;-68
2021/09/27 00:30:00;;;;;;;46.47;24.10;;;;;;;;;;4941769;28;20263;-69
2021/09/27 00:32:26;;;;;;;47.80;24.23;;;;;;;;;;4930307;28;20486;-69
2021/09/27 00:34:52;;;;;;;47.08;23.90;;;;;;;;;;4974513;28;20565;-69
2021/09/27 00:37:23;;;;;;;53.13;25.02;;;;;;;;;;4966020;28;20030;-68
2021/09/27 00:39:51;;;;;;;46.00;24.35;;;;;;;;;;4938847;28;20034;-68
2021/09/27 00:42:21;;;;;;;51.38;25.02;;;;;;;;;;4947238;28;22106;-68
2021/09/27 00:44:47;;;;;;;50.47;24.25;;;;;;;;;;4931718;28;20085;-69
2021/09/27 00:47:15;;;;;;;50.88;24.05;;;;;;;;;;4935292;28;20050;-68
2021/09/27 00:49:45;;;;;;;45.53;24.75;;;;;;;;;;4961804;28;20042;-68
2021/09/27 00:52:16;;;;;;;48.22;23.10;;;;;;;;;;4950994;28;20517;-68
2021/09/27 00:54:42;;;;;;;45.63;23.40;;;;;;;;;;4940026;28;20034;-69
2021/09/27 00:57:15;;;;;;;42.95;23.63;;;;;;;;;;4953656;28;20038;-70
2021/09/27 00:59:41;;;;;;;43.28;22.38;;;;;;;;;;4950899;28;20038;-70
2021/09/27 01:02:11;;;;;;;43.05;22.95;;;;;;;;;;4954991;28;20097;-68
2021/09/27 01:04:36;;;;;;;40.33;20.75;;;;;;;;;;4979936;28;20481;-68
2021/09/27 01:07:04;;;;;;;47.53;22.33;;;;;;;;;;4944326;28;20027;-69
2021/09/27 01:09:31;;;;;;;40.38;22.15;;;;;;;;;;4945899;28;20034;-70
2021/09/27 01:12:13;;;;;;;45.25;23.60;;;;;;;;;;4950249;28;20128;-68
2021/09/27 01:14:47;;;;;;;48.65;22.88;;;;;;;;;;4985749;28;20133;-69
2021/09/27 01:17:12;;;;;;;47.17;21.67;;;;;;;;;;4946216;28;20096;-68
2021/09/27 01:19:40;;;;;;;44.58;20.65;;;;;;;;;;4951686;28;20077;-69
2021/09/27 01:22:25;;;;;;;37.45;20.90;;;;;;;;;;4943483;28;20088;-69
2021/09/27 01:25:05;;;;;;;38.00;21.10;;;;;;;;;;4953078;28;20705;-69
2021/09/27 01:27:30;;;;;;;44.45;21.55;;;;;;;;;;4945439;28;20103;-70
2021/09/27 01:30:10;;;;;;;40.70;20.27;;;;;;;;;;4966013;28;20426;-70
2021/09/27 01:32:50;;;;;;;38.35;19.90;;;;;;;;;;4946525;28;20061;-69
2021/09/27 01:35:32;;;;;;;43.80;22.73;;;;;;;;;;4928683;28;20046;-69
2021/09/27 01:38:10;;;;;;;42.47;21.40;;;;;;;;;;4970665;28;20145;-68
2021/09/27 01:40:41;;;;;;;46.10;22.20;;;;;;;;;;4958403;28;20026;-68
2021/09/27 01:43:10;;;;;;;43.55;20.88;;;;;;;;;;4970811;28;20105;-69
2021/09/27 01:45:58;;;;;;;37.88;20.50;;;;;;;;;;4932319;28;20930;-68
2021/09/27 01:48:42;;;;;;;42.55;20.90;;;;;;;;;;4949778;28;20031;-68
2021/09/27 01:51:10;;;;;;;48.13;21.27;;;;;;;;;;4928955;28;20049;-70
2021/09/27 01:53:56;;;;;;;42.20;20.85;;;;;;;;;;4945983;28;20070;-68
2021/09/27 01:56:34;;;;;;;43.63;21.45;;;;;;;;;;4941938;28;20125;-69
2021/09/27 01:59:05;;;;;;;41.63;21.02;;;;;;;;;;4944115;28;20467;-69
2021/09/27 02:01:43;;;;;;;38.22;19.98;;;;;;;;;;4967265;28;20797;-69
2021/09/27 02:04:14;;;;;;;40.00;21.05;;;;;;;;;;4989026;28;20034;-68
2021/09/27 02:06:47;;;;;;;45.15;21.42;;;;;;;;;;4973065;28;20088;-69
2021/09/27 02:09:15;;;;;;;44.28;21.60;;;;;;;;;;4946365;28;20034;-68
2021/09/27 02:11:47;;;;;;;41.95;20.52;;;;;;;;;;4966713;28;20043;-69
2021/09/27 02:14:33;;;;;;;42.80;21.67;;;;;;;;;;4944820;28;20030;-69
2021/09/27 02:17:04;;;;;;;44.22;20.83;;;;;;;;;;4928569;28;20121;-71
2021/09/27 02:19:35;;;;;;;44.58;20.67;;;;;;;;;;4964972;28;20049;-69
2021/09/27 02:22:24;;;;;;;41.50;20.50;;;;;;;;;;4943153;28;20042;-69
2021/09/27 02:24:52;;;;;;;39.22;19.10;;;;;;;;;;4923490;28;20099;-67
2021/09/27 02:27:22;;;;;;;41.15;19.65;;;;;;;;;;4934537;28;20995;-69
2021/09/27 02:29:48;;;;;;;40.20;20.10;;;;;;;;;;4951830;28;20046;-69
2021/09/27 02:32:21;;;;;;;43.67;19.00;;;;;;;;;;4963811;28;20053;-69
2021/09/27 02:34:55;;;;;;;43.67;18.83;;;;;;;;;;4946520;28;20093;-69
2021/09/27 02:37:26;;;;;;;41.17;18.52;;;;;;;;;;4972863;28;20042;-69
2021/09/27 02:39:58;;;;;;;39.95;18.88;;;;;;;;;;4933069;28;20043;-68
2021/09/27 02:42:36;;;;;;;33.50;17.08;;;;;;;;;;4974425;28;20084;-68
2021/09/27 02:45:04;;;;;;;44.05;20.20;;;;;;;;;;4957835;28;20461;-68
2021/09/27 02:47:40;;;;;;;38.90;19.05;;;;;;;;;;4956541;28;20135;-68
2021/09/27 02:50:08;;;;;;;42.35;18.73;;;;;;;;;;4974102;28;20049;-68
2021/09/27 02:52:36;;;;;;;41.00;19.05;;;;;;;;;;4954685;28;21480;-68
2021/09/27 02:55:05;;;;;;;41.08;19.77;;;;;;;;;;4967202;28;20030;-68
2021/09/27 02:57:49;;;;;;;36.28;18.35;;;;;;;;;;4954144;28;20046;-68
2021/09/27 03:00:18;;;;;;;37.70;18.93;;;;;;;;;;4958541;28;20411;-67
2021/09/27 03:03:00;;;;;;;34.40;18.20;;;;;;;;;;4937904;28;20030;-68
2021/09/27 03:05:35;;;;;;;35.38;17.88;;;;;;;;;;4959018;28;20061;-67
2021/09/27 03:08:00;;;;;;;;;;;;;;;;;;4971145;28;20533;-68
2021/09/27 03:10:36;;;;;;;41.35;19.73;;;;;;;;;;4992947;28;19913;-69
2021/09/27 03:13:17;;;;;;;47.45;18.75;;;;;;;;;;4960385;28;20039;-67
2021/09/27 03:15:56;;;;;;;39.25;18.58;;;;;;;;;;4963674;28;20065;-68
2021/09/27 03:18:28;;;;;;;44.30;18.83;;;;;;;;;;4962286;28;20102;-67
2021/09/27 03:21:06;;;;;;;36.55;17.08;;;;;;;;;;4946509;28;21080;-69
2021/09/27 03:23:33;;;;;;;46.83;18.20;;;;;;;;;;4953927;28;20022;-69
2021/09/27 03:25:59;;;;;;;36.13;17.80;;;;;;;;;;4974501;28;20045;-68
2021/09/27 03:28:30;;;;;;;38.58;19.50;;;;;;;;;;4958915;28;20030;-68
2021/09/27 03:30:59;;;;;;;40.97;19.05;;;;;;;;;;4953184;28;20038;-70
2021/09/27 03:33:24;;;;;;;39.40;19.90;;;;;;;;;;4949802;28;20038;-68
2021/09/27 03:36:02;;;;;;;42.42;18.90;;;;;;;;;;4956550;28;20101;-67
2021/09/27 03:38:30;;;;;;;34.42;18.45;;;;;;;;;;4962209;28;20048;-68
2021/09/27 03:41:05;;;;;;;45.60;17.48;;;;;;;;;;4997642;28;20034;-67
2021/09/27 03:43:37;;;;;;;40.65;18.95;;;;;;;;;;4982354;28;20030;-66
2021/09/27 03:46:08;;;;;;;41.03;18.95;;;;;;;;;;4960084;28;20057;-68
2021/09/27 03:49:02;;;;;;;41.08;19.15;;;;;;;;;;4962524;28;20049;-67
2021/09/27 03:51:33;;;;;;;43.72;18.85;;;;;;;;;;4940745;28;20038;-67
2021/09/27 03:54:01;;;;;;;38.47;19.30;;;;;;;;;;4973651;28;20062;-67
2021/09/27 03:56:27;;;;;;;37.38;19.65;;;;;;;;;;4945721;28;20030;-67
2021/09/27 03:58:59;;;;;;;44.83;20.52;;;;;;;;;;4958400;28;20040;-68
2021/09/27 04:01:36;;;;;;;36.55;18.60;;;;;;;;;;4960107;28;20137;-67
2021/09/27 04:04:21;;;;;;;39.67;17.83;;;;;;;;;;4974621;28;20030;-68
2021/09/27 04:06:49;;;;;;;38.47;17.95;;;;;;;;;;4970959;28;20030;-70
2021/09/27 04:09:36;;;;;;;39.08;18.13;;;;;;;;;;4938005;28;20073;-69
2021/09/27 04:12:21;;;;;;;33.40;17.70;;;;;;;;;;4935824;28;20038;-67
2021/09/27 04:14:46;;;;;;;41.50;18.95;;;;;;;;;;4966837;28;20328;-67
2021/09/27 04:17:14;;;;;;;39.05;18.50;;;;;;;;;;4950030;28;20042;-68
2021/09/27 04:20:07;;;;;;;34.05;16.92;;;;;;;;;;4932860;28;20113;-69
2021/09/27 04:22:38;;;;;;;35.05;17.67;;;;;;;;;;4951550;28;20030;-68
2021/09/27 04:25:19;;;;;;;37.88;18.02;;;;;;;;;;4964214;28;20034;-68
2021/09/27 04:27:58;;;;;;;35.72;18.00;;;;;;;;;;4954775;28;20171;-68
2021/09/27 04:30:23;;;;;;;36.63;16.38;;;;;;;;;;4963395;28;20038;-68
2021/09/27 04:33:11;;;;;;;35.65;17.92;;;;;;;;;;4935728;28;20042;-67
2021/09/27 04:36:00;;;;;;;44.13;18.52;;;;;;;;;;4942748;28;20030;-66
2021/09/27 04:38:30;;;;;;;35.55;17.75;;;;;;;;;;4956308;28;20647;-67
2021/09/27 04:41:18;;;;;;;37.83;18.88;;;;;;;;;;4967064;28;20381;-67
2021/09/27 04:43:49;;;;;;;32.13;17.87;;;;;;;;;;4971882;28;20153;-68
2021/09/27 04:46:24;;;;;;;35.42;19.13;;;;;;;;;;4970524;28;20034;-68
2021/09/27 04:48:55;;;;;;;34.35;17.88;;;;;;;;;;4955240;28;20034;-68
2021/09/27 04:51:26;;;;;;;34.60;18.58;;;;;;;;;;4927911;28;20038;-68
2021/09/27 04:54:06;;;;;;;40.78;19.05;;;;;;;;;;4969017;28;22053;-70
2021/09/27 04:56:46;;;;;;;35.35;18.15;;;;;;;;;;4958841;28;20045;-69
2021/09/27 04:59:14;;;;;;;44.65;19.02;;;;;;;;;;4959878;28;20038;-66
2021/09/27 05:01:44;;;;;;;33.55;17.45;;;;;;;;;;4971821;28;20062;-69
2021/09/27 05:04:22;;;;;;;42.65;18.65;;;;;;;;;;4967758;28;20038;-67
2021/09/27 05:06:47;;;;;;;41.92;19.67;;;;;;;;;;4946987;28;20113;-67
2021/09/27 05:09:25;;;;;;;37.92;18.65;;;;;;;;;;4931783;28;20779;-68
2021/09/27 05:12:14;;;;;;;41.15;19.48;;;;;;;;;;4959749;28;20090;-69
2021/09/27 05:15:09;;;;;;;38.15;17.50;;;;;;;;;;4968413;28;20898;-69
2021/09/27 05:17:43;;;;;;;36.08;20.17;;;;;;;;;;4921290;28;20138;-70
2021/09/27 05:20:32;;;;;;;43.40;19.42;;;;;;;;;;4927005;28;20074;-67
2021/09/27 05:23:13;;;;;;;39.08;20.25;;;;;;;;;;4950811;28;20038;-67
2021/09/27 05:25:46;;;;;;;40.05;18.98;;;;;;;;;;4942696;28;20737;-71
2021/09/27 05:28:33;;;;;;;40.80;19.30;;;;;;;;;;4990854;28;20042;-70
2021/09/27 05:31:08;;;;;;;42.22;19.95;;;;;;;;;;4929639;28;20046;-68
2021/09/27 05:33:39;;;;;;;41.33;20.05;;;;;;;;;;4937794;28;20041;-69
2021/09/27 05:36:13;;;;;;;42.88;19.83;;;;;;;;;;4950490;28;20113;-69
2021/09/27 05:38:42;;;;;;;42.10;19.58;;;;;;;;;;4930274;28;20104;-68
2021/09/27 05:41:19;;;;;;;38.78;18.60;;;;;;;;;;4942617;28;20034;-69
2021/09/27 05:44:15;;;;;;;46.13;20.42;;;;;;;;;;4952153;28;20030;-69
2021/09/27 05:47:00;;;;;;;45.03;19.77;;;;;;;;;;4927865;28;20040;-69
2021/09/27 05:49:31;;;;;;;44.60;18.92;;;;;;;;;;4950909;28;20060;-71
2021/09/27 05:52:08;;;;;;;44.63;19.38;;;;;;;;;;4966426;28;20038;-71
2021/09/27 05:54:57;;;;;;;38.75;19.08;;;;;;;;;;4943212;28;20046;-69
2021/09/27 05:57:33;;;;;;;46.72;19.38;;;;;;;;;;4948889;28;20045;-69
2021/09/27 06:00:04;;;;;;;41.92;18.45;;;;;;;;;;4950411;28;20128;-70
2021/09/27 06:02:42;;;;;;;41.40;19.05;;;;;;;;;;4965168;28;20627;-71
2021/09/27 06:05:25;;;;;;;39.53;18.88;;;;;;;;;;4943962;28;20041;-71
2021/09/27 06:08:02;;;;;;;38.55;19.35;;;;;;;;;;4959844;28;20030;-69
2021/09/27 06:10:48;;;;;;;39.90;17.40;;;;;;;;;;4953805;28;20072;-71
2021/09/27 06:13:21;;;;;;;46.22;19.90;;;;;;;;;;4947995;28;20042;-69
2021/09/27 06:15:49;;;;;;;41.33;19.42;;;;;;;;;;4956102;28;22000;-70
2021/09/27 06:18:26;;;;;;;42.00;19.75;;;;;;;;;;4931719;28;20034;-70
2021/09/27 06:20:56;;;;;;;45.25;20.60;;;;;;;;;;4930567;28;20109;-71
2021/09/27 06:23:24;;;;;;;46.05;21.50;;;;;;;;;;4979330;28;20101;-70
2021/09/27 06:25:55;;;;;;;44.58;20.48;;;;;;;;;;4958575;28;21994;-71
2021/09/27 06:28:35;;;;;;;46.45;20.08;;;;;;;;;;4959569;28;20038;-71
2021/09/27 06:31:06;;;;;;;41.45;19.60;;;;;;;;;;4948169;28;20042;-69
2021/09/27 06:33:48;;;;;;;47.20;20.45;;;;;;;;;;4930836;28;20042;-69
2021/09/27 06:36:16;;;;;;;49.67;20.67;;;;;;;;;;4967323;28;20058;-71
2021/09/27 06:38:44;;;;;;;47.75;20.23;;;;;;;;;;4971032;28;20034;-69
2021/09/27 06:41:16;;;;;;;46.60;19.48;;;;;;;;;;4927530;28;20034;-69
2021/09/27 06:43:44;;;;;;;48.03;20.98;;;;;;;;;;4948149;28;20079;-69
2021/09/27 06:46:18;;;;;;;46.35;19.92;;;;;;;;;;4955223;28;20027;-69
2021/09/27 06:48:43;;;;;;;47.03;19.95;;;;;;;;;;4952839;28;20042;-69
2021/09/27 06:51:09;;;;;;;39.50;19.02;;;;;;;;;;4945576;28;20053;-70
2021/09/27 06:53:35;;;;;;;45.65;20.83;;;;;;;;;;4960491;28;20104;-69
2021/09/27 06:56:03;;;;;;;45.42;20.10;;;;;;;;;;4946278;28;20034;-71
2021/09/27 06:58:29;;;;;;;38.67;18.50;;;;;;;;;;4962300;28;20089;-70
2021/09/27 07:00:57;;;;;;;38.22;19.15;;;;;;;;;;4969556;28;20027;-69
2021/09/27 07:03:23;;;;;;;43.72;19.33;;;;;;;;;;4946117;28;20027;-69
2021/09/27 07:05:53;;;;;;;34.17;17.67;;;;;;;;;;4970683;28;20073;-69
2021/09/27 07:08:20;;;;;;;43.38;18.92;;;;;;;;;;4952226;28;20038;-69
2021/09/27 07:10:46;;;;;;;34.05;17.45;;;;;;;;;;4928776;28;21053;-69
2021/09/27 07:13:14;;;;;;;47.60;18.73;;;;;;;;;;4962230;28;20041;-69
2021/09/27 07:15:39;;;;;;;39.20;18.02;;;;;;;;;;4962239;28;20649;-69
2021/09/27 07:18:05;;;;;;;35.47;17.42;;;;;;;;;;4928908;28;20034;-68
2021/09/27 07:20:30;;;;;;;39.15;17.77;;;;;;;;;;4928357;28;20426;-68
2021/09/27 07:22:56;;;;;;;33.55;17.60;;;;;;;;;;4920663;28;20489;-67
2021/09/27 07:25:23;;;;;;;36.42;17.90;;;;;;;;;;4928578;28;20837;-67
2021/09/27 07:27:51;;;;;;;35.58;17.90;;;;;;;;;;4942909;28;20082;-67
2021/09/27 07:30:19;;;;;;;33.42;17.08;;;;;;;;;;4967608;28;20466;-70
2021/09/27 07:32:46;;;;;;;37.10;17.45;;;;;;;;;;4935858;28;20511;-69
2021/09/27 07:35:15;;;;;;;41.08;18.25;;;;;;;;;;4921699;28;20110;-69
2021/09/27 07:37:41;;;;;;;34.05;15.85;;;;;;;;;;4929051;28;20032;-68
2021/09/27 07:40:12;;;;;;;37.35;17.00;;;;;;;;;;4931081;28;20090;-68
2021/09/27 07:42:38;;;;;;;32.95;16.75;;;;;;;;;;4928755;28;20666;-68
2021/09/27 07:45:07;;;;;;;37.25;18.13;;;;;;;;;;4922043;28;20027;-70
2021/09/27 07:47:39;;;;;;;37.78;16.92;;;;;;;;;;4938205;28;20765;-71
2021/09/27 07:50:08;;;;;;;35.78;17.55;;;;;;;;;;4922138;28;20031;-70
2021/09/27 07:52:34;;;;;;;38.83;17.75;;;;;;;;;;4903926;28;20035;-68
2021/09/27 07:55:00;;;;;;;39.05;18.85;;;;;;;;;;4936934;28;20076;-70
2021/09/27 07:57:27;;;;;;;37.08;18.67;;;;;;;;;;4888263;28;20042;-70
2021/09/27 07:59:55;;;;;;;33.33;17.42;;;;;;;;;;4922127;28;20047;-70
2021/09/27 08:02:28;;;;;;;34.55;17.42;;;;;;;;;;4897106;28;20767;-69
2021/09/27 08:04:57;;;;;;;35.53;17.05;;;;;;;;;;4944913;28;20031;-69
2021/09/27 08:07:29;;;;;;;38.47;18.85;;;;;;;;;;4920628;28;20028;-70
2021/09/27 08:09:58;;;;;;;34.72;17.05;;;;;;;;;;4928483;28;20027;-68
2021/09/27 08:12:26;;;;;;;38.53;17.02;;;;;;;;;;4911902;28;20069;-66
2021/09/27 08:14:54;;;;;;;46.00;17.75;;;;;;;;;;4928180;28;20028;-69
2021/09/27 08:17:20;;;;;;;38.40;17.33;;;;;;;;;;4929362;28;20059;-69
2021/09/27 08:19:48;;;;;;;35.42;16.33;;;;;;;;;;4922682;28;20031;-69
2021/09/27 08:22:18;;;;;;;38.85;17.10;;;;;;;;;;4913377;28;20027;-69
2021/09/27 08:24:46;;;;;;;34.55;16.75;;;;;;;;;;4959893;28;20043;-69
2021/09/27 08:27:12;;;;;;;37.95;17.25;;;;;;;;;;4917329;28;20117;-70
2021/09/27 08:29:37;;;;;;;32.85;17.55;;;;;;;;;;4908287;28;20039;-69
2021/09/27 08:32:07;;;;;;;32.50;16.38;;;;;;;;;;4918087;28;20047;-69
2021/09/27 08:34:33;;;;;;;32.50;16.35;;;;;;;;;;4940691;28;20341;-69
2021/09/27 08:36:58;;;;;;;25.65;15.05;;;;;;;;;;4964756;28;20097;-69
2021/09/27 08:39:24;;;;;;;24.33;13.75;;;;;;;;;;4929591;28;20978;-70
2021/09/27 08:41:52;;;;;;;23.73;12.88;;;;;;;;;;4936681;28;20065;-70
2021/09/27 08:44:36;;;;;;;26.67;13.57;;;;;;;;;;4950204;28;20038;-69
2021/09/27 08:47:18;;;;;;;22.40;12.43;;;;;;;;;;4947161;28;21299;-69
2021/09/27 08:49:47;;;;;;;21.20;12.52;;;;;;;;;;4940737;28;20087;-70
2021/09/27 08:52:17;;;;;;;20.60;12.43;;;;;;;;;;4948321;28;20979;-65
2021/09/27 08:54:43;;;;;;;20.48;10.82;;;;;;;;;;4939943;28;20034;-70
2021/09/27 08:57:21;;;;;;;16.58;10.35;;;;;;;;;;4963073;28;20035;-69
2021/09/27 08:59:46;;;;;;;18.15;11.48;;;;;;;;;;4947090;28;20045;-69
2021/09/27 09:02:30;;;;;;;19.38;10.93;;;;;;;;;;4940201;28;20026;-70
2021/09/27 09:04:57;;;;;;;17.40;10.90;;;;;;;;;;4948628;28;20038;-68
2021/09/27 09:07:25;;;;;;;16.70;11.32;;;;;;;;;;4938922;28;20301;-69
2021/09/27 09:10:07;;;;;;;19.40;10.85;;;;;;;;;;4930122;28;20038;-68
2021/09/27 09:12:45;;;;;;;18.95;9.75;;;;;;;;;;4960767;28;20030;-67
2021/09/27 09:15:21;;;;;;;18.98;10.13;;;;;;;;;;4947877;28;20073;-68
2021/09/27 09:17:53;;;;;;;15.90;9.80;;;;;;;;;;4946026;28;20045;-68
2021/09/27 09:20:22;;;;;;;13.90;8.75;;;;;;;;;;4955841;28;20054;-68
2021/09/27 09:22:49;;;;;;;14.73;8.13;;;;;;;;;;4958525;28;20581;-67
2021/09/27 09:25:30;;;;;;;13.13;8.32;;;;;;;;;;4954246;28;20027;-68
2021/09/27 09:28:06;;;;;;;14.18;7.85;;;;;;;;;;4949495;28;20030;-69
2021/09/27 09:30:41;;;;;;;15.38;9.13;;;;;;;;;;4963895;28;20019;-68
2021/09/27 09:33:29;;;;;;;15.20;7.57;;;;;;;;;;4938220;28;20046;-68
2021/09/27 09:35:56;;;;;;;16.30;8.20;;;;;;;;;;4926186;28;20042;-70
2021/09/27 09:38:22;;;;;;;11.95;7.15;;;;;;;;;;4941458;28;21089;-70
2021/09/27 09:40:53;;;;;;;19.15;8.43;;;;;;;;;;4941143;28;20513;-71
2021/09/27 09:43:27;;;;;;;9.57;6.95;;;;;;;;;;4947863;28;20026;-70
2021/09/27 09:46:06;;;;;;;12.88;7.22;;;;;;;;;;4961901;28;20117;-68
2021/09/27 09:48:35;;;;;;;11.02;7.18;;;;;;;;;;4964201;28;20446;-70
2021/09/27 09:51:23;;;;;;;9.20;6.90;;;;;;;;;;4933511;28;20098;-70
2021/09/27 09:54:08;;;;;;;13.80;7.47;;;;;;;;;;4934568;28;20461;-69
2021/09/27 09:56:42;;;;;;;10.93;6.85;;;;;;;;;;4948274;28;20039;-69
2021/09/27 09:59:20;;;;;;;10.18;6.47;;;;;;;;;;4938090;28;20119;-69
2021/09/27 10:01:49;;;;;;;11.60;6.75;;;;;;;;;;4950016;28;20056;-68
2021/09/27 10:04:21;;;;;;;12.38;6.25;;;;;;;;;;4924729;28;20816;-66
2021/09/27 10:06:49;;;;;;;11.43;6.67;;;;;;;;;;4957591;28;20087;-69
2021/09/27 10:09:25;;;;;;;13.52;6.10;;;;;;;;;;4952316;28;20378;-70
2021/09/27 10:11:55;;;;;;;15.73;6.68;;;;;;;;;;4942016;28;20569;-70
2021/09/27 10:14:31;;;;;;;11.18;6.30;;;;;;;;;;4983415;28;20073;-67
2021/09/27 10:17:11;;;;;;;7.32;5.53;;;;;;;;;;4949237;28;20039;-70
2021/09/27 10:19:59;;;;;;;11.75;6.72;;;;;;;;;;4939846;28;20042;-69
2021/09/27 10:22:29;;;;;;;11.98;6.15;;;;;;;;;;4950376;28;20037;-68
2021/09/27 10:25:01;;;;;;;9.25;6.07;;;;;;;;;;4948661;28;20045;-70
2021/09/27 10:27:31;;;;;;;10.68;5.90;;;;;;;;;;4962369;28;20956;-70
2021/09/27 10:30:04;;;;;;;8.63;5.78;;;;;;;;;;4947099;28;20781;-67
2021/09/27 10:32:33;;;;;;;12.15;6.18;;;;;;;;;;4949107;28;20062;-69
2021/09/27 10:35:03;;;;;;;8.95;5.50;;;;;;;;;;4946236;28;20035;-70
2021/09/27 10:37:29;;;;;;;11.48;6.10;;;;;;;;;;4949160;28;20041;-70
2021/09/27 10:39:57;;;;;;;8.90;5.32;;;;;;;;;;4954595;28;20039;-70
2021/09/27 10:42:30;;;;;;;10.55;5.50;;;;;;;;;;4920202;28;20035;-65
2021/09/27 10:44:55;;;;;;;6.38;5.15;;;;;;;;;;4961925;28;20031;-70
2021/09/27 10:47:25;;;;;;;10.15;5.75;;;;;;;;;;4925464;28;21361;-68
2021/09/27 10:49:56;;;;;;;7.35;4.80;;;;;;;;;;4946716;28;20039;-71
2021/09/27 10:52:36;;;;;;;6.50;5.13;;;;;;;;;;4946579;28;20038;-69
2021/09/27 10:55:14;;;;;;;7.70;5.30;;;;;;;;;;4948838;28;20027;-70
2021/09/27 10:57:48;;;;;;;10.20;5.22;;;;;;;;;;4956759;28;20483;-72
2021/09/27 11:00:18;;;;;;;12.65;5.20;;;;;;;;;;4950566;28;20080;-68
2021/09/27 11:02:52;;;;;;;8.80;5.07;;;;;;;;;;4956310;28;20041;-69
2021/09/27 11:05:23;;;;;;;8.18;4.88;;;;;;;;;;4950537;28;20125;-70
2021/09/27 11:07:55;;;;;;;9.90;4.95;;;;;;;;;;4955972;28;20461;-69
2021/09/27 11:10:24;;;;;;;8.43;4.55;;;;;;;;;;4943829;28;20063;-71
2021/09/27 11:12:51;;;;;;;7.57;4.85;;;;;;;;;;4945415;28;20140;-70
2021/09/27 11:15:25;;;;;;;7.47;4.13;;;;;;;;;;4926399;28;20050;-69
2021/09/27 11:18:05;;;;;;;8.90;4.18;;;;;;;;;;4957489;28;20035;-70
2021/09/27 11:20:40;;;;;;;8.35;4.43;;;;;;;;;;4950305;28;20713;-73
2021/09/27 11:23:21;;;;;;;7.43;4.45;;;;;;;;;;4951188;28;20769;-70
2021/09/27 11:25:49;;;;;;;6.35;4.32;;;;;;;;;;4957877;28;20490;-70
2021/09/27 11:28:19;;;;;;;7.20;3.78;;;;;;;;;;4949600;28;20057;-71
2021/09/27 11:31:04;;;;;;;5.28;3.67;;;;;;;;;;4947964;28;20046;-73
2021/09/27 11:33:31;;;;;;;10.57;3.90;;;;;;;;;;4947941;28;20589;-72
2021/09/27 11:36:17;;;;;;;6.97;3.60;;;;;;;;;;4948332;28;20030;-70
2021/09/27 11:38:45;;;;;;;6.43;3.80;;;;;;;;;;4932177;28;20059;-72
2021/09/27 11:41:10;;;;;;;6.53;3.83;;;;;;;;;;4940148;28;20029;-70
2021/09/27 11:43:57;;;;;;;6.70;4.20;;;;;;;;;;4942617;28;20038;-72
2021/09/27 11:46:32;;;;;;;5.70;3.65;;;;;;;;;;4934805;28;20713;-70
2021/09/27 11:49:18;;;;;;;5.97;3.72;;;;;;;;;;4926058;28;20054;-69
2021/09/27 11:52:02;;;;;;;5.57;3.97;;;;;;;;;;4949497;28;20065;-71
2021/09/27 11:54:36;;;;;;;6.57;3.60;;;;;;;;;;4940945;28;20149;-72
2021/09/27 11:57:05;;;;;;;13.70;3.60;;;;;;;;;;4940947;28;20057;-72
2021/09/27 11:59:43;;;;;;;7.38;3.30;;;;;;;;;;4949532;28;20062;-69
2021/09/27 12:02:23;;;;;;;5.72;3.47;;;;;;;;;;4952570;28;20027;-71
2021/09/27 12:05:18;;;;;;;3.63;3.05;;;;;;;;;;4960069;28;20049;-69
2021/09/27 12:07:52;;;;;;;6.03;2.95;;;;;;;;;;4945309;28;20058;-69
2021/09/27 12:10:24;;;;;;;6.85;3.00;;;;;;;;;;4941855;28;20062;-70
2021/09/27 12:13:02;;;;;;;7.82;3.28;;;;;;;;;;4955802;28;20089;-67
2021/09/27 12:15:33;;;;;;;4.30;2.78;;;;;;;;;;4957431;28;20066;-71
2021/09/27 12:17:59;;;;;;;5.38;3.03;;;;;;;;;;4966214;28;20034;-72
2021/09/27 12:20:28;;;;;;;5.95;3.45;;;;;;;;;;4908840;28;20035;-68
2021/09/27 12:23:02;;;;;;;5.97;3.08;;;;;;;;;;4957586;28;20041;-67
2021/09/27 12:25:35;;;;;;;4.28;3.20;;;;;;;;;;4957410;28;20668;-69
2021/09/27 12:28:05;;;;;;;6.00;3.20;;;;;;;;;;4940690;28;20045;-70
2021/09/27 12:30:34;;;;;;;4.13;3.33;;;;;;;;;;4950799;28;20034;-69
2021/09/27 12:33:02;;;;;;;6.22;3.00;;;;;;;;;;4956405;28;20051;-70
2021/09/27 12:35:39;;;;;;;4.20;2.90;;;;;;;;;;4948737;28;20030;-71
2021/09/27 12:38:10;;;;;;;4.68;3.00;;;;;;;;;;4964717;28;20030;-65
2021/09/27 12:40:37;;;;;;;4.82;3.13;;;;;;;;;;4971469;28;20026;-68
2021/09/27 12:43:12;;;;;;;4.32;2.92;;;;;;;;;;4950178;28;20030;-71
2021/09/27 12:45:57;;;;;;;4.35;2.92;;;;;;;;;;4962546;28;20075;-70
2021/09/27 12:48:25;;;;;;;5.65;3.08;;;;;;;;;;4955355;28;20034;-71
2021/09/27 12:50:55;;;;;;;5.80;2.53;;;;;;;;;;4964356;28;20810;-70
2021/09/27 12:53:24;;;;;;;3.42;2.95;;;;;;;;;;4948916;28;20039;-67
2021/09/27 12:55:56;;;;;;;6.65;2.90;;;;;;;;;;4947844;28;20751;-66
2021/09/27 12:58:59;;;;;;;4.32;2.35;;;;;;;;;;4947618;28;20030;-68
2021/09/27 13:01:26;;;;;;;4.18;2.35;;;;;;;;;;4922401;28;20117;-69
2021/09/27 13:04:11;;;;;;;4.38;2.50;;;;;;;;;;4947290;28;20031;-68
2021/09/27 13:06:51;;;;;;;4.78;2.50;;;;;;;;;;4948668;28;20034;-71
2021/09/27 13:09:19;;;;;;;5.40;2.65;;;;;;;;;;4935888;28;20109;-69
2021/09/27 13:11:50;;;;;;;8.77;2.70;;;;;;;;;;4922220;28;20989;-68
2021/09/27 13:14:21;;;;;;;3.90;2.72;;;;;;;;;;4953423;28;20636;-71
2021/09/27 13:16:48;;;;;;;7.88;3.95;;;;;;;;;;4949205;28;20117;-72
2021/09/27 13:19:40;;;;;;;5.68;2.90;;;;;;;;;;4961961;28;20099;-66
2021/09/27 13:22:12;;;;;;;6.57;3.13;;;;;;;;;;4949518;28;20043;-70
2021/09/27 13:24:40;;;;;;;7.53;3.10;;;;;;;;;;4934752;28;20075;-69
2021/09/27 13:27:05;;;;;;;6.13;3.15;;;;;;;;;;4955069;28;20086;-71
2021/09/27 13:29:34;;;;;;;4.30;2.60;;;;;;;;;;4947294;28;20113;-71
2021/09/27 13:32:06;;;;;;;6.22;2.70;;;;;;;;;;4952818;28;20100;-71
2021/09/27 13:34:37;;;;;;;3.60;2.85;;;;;;;;;;4954676;28;21403;-70
2021/09/27 13:37:14;;;;;;;8.30;3.13;;;;;;;;;;4960816;28;20519;-70
2021/09/27 13:39:40;;;;;;;9.10;2.95;;;;;;;;;;4953179;28;20034;-69
2021/09/27 13:42:08;;;;;;;5.85;2.92;;;;;;;;;;4949978;28;20386;-72
2021/09/27 13:44:39;;;;;;;5.88;2.45;;;;;;;;;;4935659;28;20075;-71
2021/09/27 13:47:10;;;;;;;6.25;2.70;;;;;;;;;;4967339;28;20030;-70
2021/09/27 13:49:37;;;;;;;15.45;3.08;;;;;;;;;;4956258;28;20069;-71
2021/09/27 13:52:04;;;;;;;4.47;2.72;;;;;;;;;;4981870;28;20442;-70
2021/09/27 13:54:29;;;;;;;6.70;2.72;;;;;;;;;;4960406;28;20042;-70
2021/09/27 13:56:57;;;;;;;4.82;2.22;;;;;;;;;;4950973;28;20042;-67
2021/09/27 13:59:25;;;;;;;5.93;2.60;;;;;;;;;;4944006;28;20030;-68
2021/09/27 14:01:50;;;;;;;5.63;2.22;;;;;;;;;;4950486;28;20022;-73
2021/09/27 14:04:21;;;;;;;5.15;2.90;;;;;;;;;;4964411;28;20046;-72
2021/09/27 14:06:51;;;;;;;7.00;3.28;;;;;;;;;;4951604;28;20034;-67
2021/09/27 14:09:17;;;;;;;4.70;2.58;;;;;;;;;;4952284;28;20585;-68
2021/09/27 14:11:45;;;;;;;6.78;2.75;;;;;;;;;;4941122;28;20049;-70
2021/09/27 14:14:10;;;;;;;8.68;2.38;;;;;;;;;;4936129;28;20038;-71
2021/09/27 14:16:35;;;;;;;4.03;2.50;;;;;;;;;;4967754;28;20034;-68
2021/09/27 14:19:06;;;;;;;11.18;2.75;;;;;;;;;;4943344;28;20674;-72
2021/09/27 14:21:33;;;;;;;7.18;3.03;;;;;;;;;;4941797;28;20120;-71
2021/09/27 14:24:03;;;;;;;5.55;2.85;;;;;;;;;;4944091;28;20177;-71
2021/09/27 14:26:30;;;;;;;4.13;2.33;;;;;;;;;;4941282;28;22056;-69
2021/09/27 14:28:58;;;;;;;4.95;2.38;;;;;;;;;;4926730;28;20157;-69
2021/09/27 14:31:24;;;;;;;4.93;2.67;;;;;;;;;;4971009;28;20042;-69
2021/09/27 14:33:50;;;;;;;3.58;2.40;;;;;;;;;;4941035;28;20052;-71
2021/09/27 14:36:17;;;;;;;5.53;2.63;;;;;;;;;;4971596;28;20160;-70
2021/09/27 14:38:44;;;;;;;5.72;2.83;;;;;;;;;;4954378;28;20527;-71
2021/09/27 14:41:15;;;;;;;5.00;2.92;;;;;;;;;;4945333;28;21566;-70
2021/09/27 14:43:41;;;;;;;6.05;4.18;;;;;;;;;;4963443;28;20030;-70
2021/09/27 14:46:10;;;;;;;15.98;3.53;;;;;;;;;;4971233;28;20109;-68
2021/09/27 14:48:38;;;;;;;6.95;3.33;;;;;;;;;;4964124;28;20046;-69
2021/09/27 14:51:06;;;;;;;8.30;3.10;;;;;;;;;;4956004;28;20034;-70
2021/09/27 14:53:37;;;;;;;7.32;3.58;;;;;;;;;;4963495;28;20165;-68
2021/09/27 14:56:03;;;;;;;9.48;4.28;;;;;;;;;;4961829;28;20082;-70